createdAt,value
2018-04-29T00:01:09.215Z,13.50
2018-04-29T00:03:41.187Z,13.50
2018-04-29T00:06:08.893Z,13.40
2018-04-29T00:08:37.720Z,13.40
2018-04-29T00:11:06.788Z,13.40
2018-04-29T00:13:34.492Z,13.40
2018-04-29T00:16:03.040Z,13.40
2018-04-29T00:18:30.727Z,13.40
2018-04-29T00:20:58.416Z,13.40
2018-04-29T00:23:26.882Z,13.40
2018-04-29T00:25:54.559Z,13.40
2018-04-29T00:28:22.263Z,13.40
2018-04-29T00:30:49.928Z,13.30
2018-04-29T00:33:17.617Z,13.30
2018-04-29T00:35:45.275Z,13.20
2018-04-29T00:38:12.966Z,13.20
2018-04-29T00:40:40.627Z,13.20
2018-04-29T00:43:08.327Z,13.10
2018-04-29T00:45:36.011Z,13.10
2018-04-29T00:48:03.667Z,13.00
2018-04-29T00:50:31.355Z,12.90
2018-04-29T00:52:59.016Z,12.90
2018-04-29T00:55:26.719Z,12.80
2018-04-29T00:57:55.145Z,12.70
2018-04-29T01:00:22.843Z,12.70
2018-04-29T01:02:50.499Z,12.60
2018-04-29T01:05:18.214Z,12.50
2018-04-29T01:07:45.869Z,12.50
2018-04-29T01:10:13.553Z,12.50
2018-04-29T01:12:41.216Z,12.40
2018-04-29T01:15:08.910Z,12.30
2018-04-29T01:17:37.826Z,12.30
2018-04-29T01:20:06.292Z,12.20
2018-04-29T01:22:34.751Z,12.20
2018-04-29T01:25:02.392Z,12.20
2018-04-29T01:27:30.096Z,12.20
2018-04-29T01:29:58.532Z,12.20
2018-04-29T01:32:26.224Z,12.20
2018-04-29T01:34:53.885Z,12.20
2018-04-29T01:37:21.576Z,12.20
2018-04-29T01:39:50.003Z,12.20
2018-04-29T01:42:18.472Z,12.20
2018-04-29T01:44:46.140Z,12.20
2018-04-29T01:47:13.811Z,12.20
2018-04-29T01:49:41.503Z,12.20
2018-04-29T01:52:09.251Z,12.20
2018-04-29T01:54:38.170Z,12.30
2018-04-29T01:57:06.590Z,12.30
2018-04-29T01:59:34.278Z,12.20
2018-04-29T02:02:01.932Z,12.30
2018-04-29T02:04:29.616Z,12.30
2018-04-29T02:06:57.277Z,12.30
2018-04-29T02:09:24.962Z,12.30
2018-04-29T02:11:53.379Z,12.20
2018-04-29T02:14:21.076Z,12.30
2018-04-29T02:16:48.735Z,12.30
2018-04-29T02:19:16.396Z,12.20
2018-04-29T02:21:44.103Z,12.20
2018-04-29T02:24:11.760Z,12.20
2018-04-29T02:26:39.445Z,12.20
2018-04-29T02:29:07.979Z,12.20
2018-04-29T02:31:36.297Z,12.20
2018-04-29T02:34:03.971Z,12.20
2018-04-29T02:36:31.667Z,12.20
2018-04-29T02:38:59.332Z,12.20
2018-04-29T02:41:27.011Z,12.20
2018-04-29T02:43:55.438Z,12.20
2018-04-29T02:46:23.128Z,12.20
2018-04-29T02:48:50.819Z,12.20
2018-04-29T02:53:51.535Z,12.20
2018-04-29T02:56:19.191Z,12.20
2018-04-29T02:58:46.886Z,12.20
2018-04-29T03:01:15.320Z,12.10
2018-04-29T03:03:43.014Z,12.10
2018-04-29T03:06:10.684Z,12.10
2018-04-29T03:08:38.367Z,12.00
2018-04-29T03:11:07.703Z,12.00
2018-04-29T03:13:35.399Z,12.00
2018-04-29T03:16:03.072Z,11.90
2018-04-29T03:18:31.549Z,11.80
2018-04-29T03:20:59.228Z,11.80
2018-04-29T03:23:27.682Z,11.70
2018-04-29T03:25:55.363Z,11.70
2018-04-29T03:28:23.023Z,11.70
2018-04-29T03:30:50.732Z,11.60
2018-04-29T03:33:18.391Z,11.60
2018-04-29T03:35:46.040Z,11.50
2018-04-29T03:38:13.729Z,11.50
2018-04-29T03:40:41.412Z,11.40
2018-04-29T03:43:09.059Z,11.40
2018-04-29T03:45:37.767Z,11.30
2018-04-29T03:48:05.427Z,11.30
2018-04-29T03:50:33.113Z,11.20
2018-04-29T03:53:01.552Z,11.20
2018-04-29T03:55:29.467Z,11.20
2018-04-29T03:58:09.831Z,11.10
2018-04-29T04:00:59.108Z,11.10
2018-04-29T04:03:38.815Z,11.10
2018-04-29T04:06:07.586Z,11.10
2018-04-29T04:08:35.234Z,11.10
2018-04-29T04:11:02.904Z,11.10
2018-04-29T04:13:30.599Z,11.10
2018-04-29T04:15:59.027Z,11.10
2018-04-29T04:18:26.726Z,11.10
2018-04-29T04:20:54.399Z,11.10
2018-04-29T04:23:22.863Z,11.10
2018-04-29T04:25:50.544Z,11.10
2018-04-29T04:28:19.010Z,11.10
2018-04-29T04:30:46.671Z,11.20
2018-04-29T04:33:14.358Z,11.20
2018-04-29T04:35:42.780Z,11.20
2018-04-29T04:38:10.483Z,11.20
2018-04-29T04:40:38.812Z,11.20
2018-04-29T04:43:07.652Z,11.20
2018-04-29T04:45:36.636Z,11.20
2018-04-29T04:48:04.293Z,11.20
2018-04-29T04:50:31.988Z,11.20
2018-04-29T04:52:59.655Z,11.20
2018-04-29T04:55:27.358Z,11.20
2018-04-29T04:57:55.009Z,11.20
2018-04-29T05:00:22.696Z,11.20
2018-04-29T05:02:50.380Z,11.20
2018-04-29T05:05:18.806Z,11.40
2018-04-29T05:07:46.492Z,11.30
2018-04-29T05:10:14.186Z,11.50
2018-04-29T05:12:42.670Z,11.80
2018-04-29T05:15:11.104Z,12.00
2018-04-29T05:17:38.806Z,12.00
2018-04-29T05:20:08.051Z,12.50
2018-04-29T05:22:35.744Z,12.40
2018-04-29T05:25:03.396Z,12.60
2018-04-29T05:27:31.080Z,12.80
2018-04-29T05:29:58.740Z,13.00
2018-04-29T05:32:26.449Z,13.20
2018-04-29T05:34:54.116Z,13.50
2018-04-29T05:37:21.819Z,13.70
2018-04-29T05:39:49.506Z,13.90
2018-04-29T05:42:17.936Z,14.40
2018-04-29T05:44:45.655Z,14.30
2018-04-29T05:47:15.341Z,14.60
2018-04-29T05:49:43.064Z,14.60
2018-04-29T05:52:10.714Z,14.70
2018-04-29T05:54:38.400Z,14.80
2018-04-29T05:57:06.788Z,14.80
2018-04-29T05:59:34.496Z,14.80
2018-04-29T06:02:02.925Z,14.80
2018-04-29T06:04:30.832Z,14.80
2018-04-29T06:06:59.274Z,15.00
2018-04-29T06:09:26.975Z,14.90
2018-04-29T06:11:55.453Z,15.00
2018-04-29T06:14:23.975Z,15.00
2018-04-29T06:16:51.648Z,15.00
2018-04-29T06:19:19.347Z,15.10
2018-04-29T06:21:47.022Z,15.10
2018-04-29T06:24:16.279Z,15.20
2018-04-29T06:26:43.986Z,15.20
2018-04-29T06:29:12.417Z,15.50
2018-04-29T06:31:40.122Z,15.50
2018-04-29T06:34:08.558Z,15.70
2018-04-29T06:36:36.747Z,15.70
2018-04-29T06:39:04.426Z,15.70
2018-04-29T06:41:32.135Z,15.80
2018-04-29T06:43:59.822Z,15.80
2018-04-29T06:46:27.548Z,15.80
2018-04-29T06:48:55.979Z,15.90
2018-04-29T06:51:23.640Z,15.90
2018-04-29T06:53:51.340Z,15.90
2018-04-29T06:56:19.764Z,16.00
2018-04-29T06:58:47.469Z,15.90
2018-04-29T07:01:15.159Z,16.00
2018-04-29T07:03:42.819Z,16.00
2018-04-29T07:06:11.279Z,16.10
2018-04-29T07:08:39.711Z,16.30
2018-04-29T07:11:07.436Z,16.20
2018-04-29T07:13:35.867Z,16.50
2018-04-29T07:16:03.570Z,16.50
2018-04-29T07:18:32.001Z,16.80
2018-04-29T07:20:59.714Z,16.70
2018-04-29T07:23:28.190Z,17.10
2018-04-29T07:25:56.619Z,17.30
2018-04-29T07:28:24.288Z,17.30
2018-04-29T07:30:51.980Z,17.40
2018-04-29T07:33:19.639Z,17.60
2018-04-29T07:35:47.364Z,17.70
2018-04-29T07:38:15.026Z,17.90
2018-04-29T07:40:42.716Z,18.00
2018-04-29T07:43:10.379Z,18.00
2018-04-29T07:45:38.833Z,18.10
2018-04-29T07:48:06.919Z,18.10
2018-04-29T07:50:34.619Z,18.20
2018-04-29T07:53:03.053Z,18.30
2018-04-29T07:55:30.748Z,18.20
2018-04-29T07:57:58.415Z,18.30
2018-04-29T08:00:26.959Z,18.40
2018-04-29T08:02:54.651Z,18.40
2018-04-29T08:05:22.307Z,18.40
2018-04-29T08:07:50.003Z,18.40
2018-04-29T08:10:17.665Z,18.40
2018-04-29T08:12:46.128Z,18.40
2018-04-29T08:15:14.564Z,18.30
2018-04-29T08:17:42.252Z,18.30
2018-04-29T08:20:09.920Z,18.30
2018-04-29T08:22:38.459Z,18.50
2018-04-29T08:25:07.987Z,18.80
2018-04-29T08:27:35.673Z,19.30
2018-04-29T08:30:03.399Z,19.70
2018-04-29T08:32:31.072Z,20.30
2018-04-29T08:34:59.587Z,21.40
2018-04-29T08:37:28.193Z,22.00
2018-04-29T08:39:56.754Z,22.50
2018-04-29T08:42:25.218Z,23.10
2018-04-29T08:44:53.022Z,23.10
2018-04-29T08:47:20.707Z,23.90
2018-04-29T08:49:48.360Z,24.60
2018-04-29T08:52:16.176Z,25.10
2018-04-29T08:54:43.850Z,25.50
2018-04-29T08:57:12.299Z,26.30
2018-04-29T08:59:39.995Z,26.30
2018-04-29T09:02:09.009Z,26.90
2018-04-29T09:04:37.189Z,26.80
2018-04-29T09:07:04.877Z,27.20
2018-04-29T09:09:32.661Z,27.60
2018-04-29T09:12:00.358Z,28.10
2018-04-29T09:14:28.866Z,28.40
2018-04-29T09:16:56.667Z,28.40
2018-04-29T09:19:24.340Z,28.20
2018-04-29T09:21:52.039Z,27.90
2018-04-29T09:24:20.056Z,27.50
2018-04-29T09:26:47.945Z,27.00
2018-04-29T09:29:16.155Z,26.70
2018-04-29T09:31:45.296Z,26.20
2018-04-29T09:34:13.273Z,25.70
2018-04-29T09:36:41.028Z,25.20
2018-04-29T09:39:09.506Z,24.40
2018-04-29T09:41:38.874Z,24.30
2018-04-29T09:44:07.551Z,24.00
2018-04-29T09:46:35.293Z,23.70
2018-04-29T09:49:03.004Z,23.50
2018-04-29T09:51:30.762Z,23.20
2018-04-29T09:53:58.463Z,23.10
2018-04-29T09:56:26.151Z,22.90
2018-04-29T09:58:54.625Z,22.60
2018-04-29T10:01:25.901Z,22.50
2018-04-29T10:03:53.795Z,22.50
2018-04-29T10:06:21.481Z,22.40
2018-04-29T10:08:49.173Z,22.30
2018-04-29T10:11:17.606Z,22.20
2018-04-29T10:13:46.071Z,22.30
2018-04-29T10:16:13.743Z,22.20
2018-04-29T10:18:41.600Z,22.30
2018-04-29T10:21:10.095Z,22.30
2018-04-29T10:23:38.429Z,22.30
2018-04-29T10:26:06.872Z,22.40
2018-04-29T10:28:34.609Z,22.30
2018-04-29T10:31:02.282Z,22.40
2018-04-29T10:33:29.991Z,22.40
2018-04-29T10:35:58.421Z,22.40
2018-04-29T10:38:26.137Z,22.30
2018-04-29T10:40:53.841Z,22.40
2018-04-29T10:43:21.503Z,22.30
2018-04-29T10:45:49.205Z,22.40
2018-04-29T10:48:17.638Z,22.40
2018-04-29T10:50:45.361Z,22.40
2018-04-29T10:53:13.793Z,22.40
2018-04-29T10:55:42.536Z,22.40
2018-04-29T10:58:10.295Z,22.40
2018-04-29T11:00:38.014Z,22.50
2018-04-29T11:03:06.400Z,22.40
2018-04-29T11:05:34.117Z,22.40
2018-04-29T11:08:01.802Z,22.30
2018-04-29T11:10:29.526Z,22.30
2018-04-29T11:12:57.956Z,22.30
2018-04-29T11:15:25.647Z,22.30
2018-04-29T11:17:53.341Z,22.30
2018-04-29T11:20:21.161Z,22.30
2018-04-29T11:22:49.112Z,22.30
2018-04-29T11:25:16.807Z,22.30
2018-04-29T11:27:45.303Z,22.40
2018-04-29T11:30:13.732Z,22.40
2018-04-29T11:32:41.450Z,22.40
2018-04-29T11:35:09.114Z,22.40
2018-04-29T11:37:36.773Z,22.40
2018-04-29T11:40:04.475Z,22.40
2018-04-29T11:42:32.928Z,22.40
2018-04-29T11:45:00.633Z,22.40
2018-04-29T11:47:28.336Z,22.50
2018-04-29T11:49:56.813Z,22.50
2018-04-29T11:52:25.250Z,22.60
2018-04-29T11:54:52.920Z,22.60
2018-04-29T11:57:20.624Z,22.70
2018-04-29T11:59:49.618Z,22.80
2018-04-29T12:02:18.413Z,22.80
2018-04-29T12:04:50.109Z,22.80
2018-04-29T12:07:18.500Z,22.80
2018-04-29T12:09:46.285Z,22.80
2018-04-29T12:12:13.927Z,22.80
2018-04-29T12:14:41.631Z,22.80
2018-04-29T12:17:10.311Z,22.90
2018-04-29T12:19:38.793Z,22.90
2018-04-29T12:22:06.525Z,22.90
2018-04-29T12:24:34.274Z,22.90
2018-04-29T12:27:02.790Z,23.00
2018-04-29T12:29:31.287Z,23.10
2018-04-29T12:31:58.988Z,23.10
2018-04-29T12:34:26.700Z,23.10
2018-04-29T12:36:55.207Z,23.20
2018-04-29T12:39:22.911Z,23.20
2018-04-29T12:41:50.630Z,23.20
2018-04-29T12:44:18.978Z,23.30
2018-04-29T12:46:47.483Z,23.30
2018-04-29T12:49:15.211Z,23.30
2018-04-29T12:51:42.926Z,23.40
2018-04-29T12:54:10.611Z,23.40
2018-04-29T12:56:38.268Z,23.50
2018-04-29T12:59:06.753Z,23.60
2018-04-29T13:01:35.173Z,23.70
2018-04-29T13:04:03.627Z,23.70
2018-04-29T13:06:31.329Z,23.70
2018-04-29T13:08:59.801Z,23.80
2018-04-29T13:11:28.238Z,23.80
2018-04-29T13:13:55.937Z,23.70
2018-04-29T13:16:25.389Z,23.90
2018-04-29T13:18:53.080Z,23.90
2018-04-29T13:21:21.275Z,24.00
2018-04-29T13:23:50.440Z,24.20
2018-04-29T13:26:18.594Z,24.20
2018-04-29T13:28:46.272Z,24.20
2018-04-29T13:31:14.034Z,24.30
2018-04-29T13:33:41.708Z,24.40
2018-04-29T13:36:09.395Z,24.40
2018-04-29T13:38:37.892Z,24.50
2018-04-29T13:41:06.424Z,24.50
2018-04-29T13:43:34.132Z,24.50
2018-04-29T13:46:03.008Z,24.60
2018-04-29T13:48:31.488Z,24.70
2018-04-29T13:51:00.941Z,24.80
2018-04-29T13:53:28.639Z,24.80
2018-04-29T13:55:56.334Z,24.80
2018-04-29T13:58:24.763Z,24.80
2018-04-29T14:00:52.660Z,24.80
2018-04-29T14:03:21.235Z,24.90
2018-04-29T14:05:49.535Z,24.90
2018-04-29T14:08:17.971Z,25.00
2018-04-29T14:10:46.444Z,25.00
2018-04-29T14:13:14.159Z,25.00
2018-04-29T14:15:41.876Z,25.00
2018-04-29T14:18:09.643Z,25.10
2018-04-29T14:20:37.331Z,25.10
2018-04-29T14:23:04.999Z,25.10
2018-04-29T14:25:33.472Z,25.10
2018-04-29T14:28:01.175Z,25.10
2018-04-29T14:30:28.885Z,25.10
2018-04-29T14:32:56.689Z,25.20
2018-04-29T14:35:25.122Z,25.10
2018-04-29T14:37:52.848Z,25.10
2018-04-29T14:40:21.139Z,25.20
2018-04-29T14:42:49.524Z,25.20
2018-04-29T14:45:17.193Z,25.30
2018-04-29T14:47:44.889Z,25.30
2018-04-29T14:50:13.392Z,25.20
2018-04-29T14:52:41.137Z,25.20
2018-04-29T14:55:09.595Z,25.20
2018-04-29T14:57:37.297Z,25.20
2018-04-29T15:00:05.755Z,25.20
2018-04-29T15:02:34.260Z,25.20
2018-04-29T15:05:01.921Z,25.10
2018-04-29T15:07:30.356Z,25.10
2018-04-29T15:09:58.078Z,25.10
2018-04-29T15:12:25.784Z,25.10
2018-04-29T15:14:53.472Z,25.10
2018-04-29T15:17:21.974Z,25.00
2018-04-29T15:19:50.318Z,25.00
2018-04-29T15:22:18.045Z,25.00
2018-04-29T15:24:45.756Z,25.00
2018-04-29T15:27:14.221Z,24.90
2018-04-29T15:29:42.008Z,24.80
2018-04-29T15:32:10.453Z,24.80
2018-04-29T15:34:38.143Z,24.70
2018-04-29T15:37:06.625Z,24.70
2018-04-29T15:39:35.102Z,24.60
2018-04-29T15:42:03.603Z,24.60
2018-04-29T15:44:32.134Z,24.60
2018-04-29T15:46:59.849Z,24.60
2018-04-29T15:49:28.691Z,24.60
2018-04-29T15:51:56.404Z,24.60
2018-04-29T15:54:24.071Z,24.60
2018-04-29T15:56:51.779Z,24.60
2018-04-29T15:59:19.990Z,24.50
2018-04-29T16:01:48.488Z,24.40
2018-04-29T16:04:16.167Z,24.40
2018-04-29T16:06:43.897Z,24.40
2018-04-29T16:09:12.393Z,24.40
2018-04-29T16:11:40.135Z,24.40
2018-04-29T16:14:07.833Z,24.30
2018-04-29T16:16:36.353Z,24.20
2018-04-29T16:19:04.027Z,24.20
2018-04-29T16:21:31.996Z,24.20
2018-04-29T16:23:59.713Z,24.20
2018-04-29T16:26:27.428Z,24.20
2018-04-29T16:28:55.091Z,24.10
2018-04-29T16:31:23.566Z,24.10
2018-04-29T16:33:52.044Z,24.10
2018-04-29T16:36:20.547Z,24.10
2018-04-29T16:38:49.005Z,24.00
2018-04-29T16:41:18.263Z,24.00
2018-04-29T16:43:45.986Z,24.00
2018-04-29T16:46:14.412Z,23.90
2018-04-29T16:48:42.195Z,23.90
2018-04-29T16:51:09.828Z,23.90
2018-04-29T16:53:37.550Z,23.80
2018-04-29T16:56:05.984Z,23.80
2018-04-29T16:58:33.692Z,23.70
2018-04-29T17:01:02.130Z,23.70
2018-04-29T17:03:29.799Z,23.70
2018-04-29T17:05:57.501Z,23.60
2018-04-29T17:08:25.960Z,23.50
2018-04-29T17:10:53.697Z,23.50
2018-04-29T17:13:21.990Z,23.40
2018-04-29T17:15:49.686Z,23.40
2018-04-29T17:18:18.192Z,23.20
2018-04-29T17:20:46.095Z,23.20
2018-04-29T17:23:13.795Z,23.10
2018-04-29T17:25:42.255Z,23.00
2018-04-29T17:28:09.957Z,22.90
2018-04-29T17:30:37.613Z,22.80
2018-04-29T17:33:05.432Z,22.70
2018-04-29T17:35:33.128Z,22.60
2018-04-29T17:38:07.381Z,22.60
2018-04-29T17:40:35.724Z,22.50
2018-04-29T17:43:03.475Z,22.40
2018-04-29T17:45:31.152Z,22.30
2018-04-29T17:47:59.413Z,22.20
2018-04-29T17:50:28.597Z,22.10
2018-04-29T17:52:58.432Z,21.90
2018-04-29T17:55:27.003Z,21.80
2018-04-29T17:57:54.672Z,21.80
2018-04-29T18:00:23.178Z,21.70
2018-04-29T18:02:51.524Z,21.60
2018-04-29T18:05:19.227Z,21.60
2018-04-29T18:07:46.903Z,21.50
2018-04-29T18:10:14.624Z,21.50
2018-04-29T18:12:42.330Z,21.40
2018-04-29T18:15:10.008Z,21.30
2018-04-29T18:17:37.711Z,21.20
2018-04-29T18:20:06.151Z,21.00
2018-04-29T18:22:33.865Z,21.00
2018-04-29T18:25:01.535Z,21.00
2018-04-29T18:27:29.230Z,20.90
2018-04-29T18:29:56.890Z,20.80
2018-04-29T18:32:24.588Z,20.80
2018-04-29T18:34:53.138Z,20.70
2018-04-29T18:37:21.650Z,20.60
2018-04-29T18:39:49.319Z,20.60
2018-04-29T18:42:17.759Z,20.40
2018-04-29T18:44:45.483Z,20.40
2018-04-29T18:47:13.182Z,20.40
2018-04-29T18:49:40.872Z,20.30
2018-04-29T18:52:08.533Z,20.30
2018-04-29T18:54:36.218Z,20.30
2018-04-29T18:57:04.638Z,20.20
2018-04-29T18:59:32.345Z,20.10
2018-04-29T19:02:00.004Z,20.10
2018-04-29T19:04:27.699Z,20.10
2018-04-29T19:06:55.390Z,20.00
2018-04-29T19:09:23.052Z,20.00
2018-04-29T19:11:51.788Z,19.90
2018-04-29T19:14:20.847Z,19.80
2018-04-29T19:16:48.548Z,19.80
2018-04-29T19:19:16.971Z,19.70
2018-04-29T19:21:44.655Z,19.70
2018-04-29T19:24:12.473Z,19.60
2018-04-29T19:26:40.386Z,19.60
2018-04-29T19:29:08.043Z,19.50
2018-04-29T19:31:35.764Z,19.40
2018-04-29T19:34:03.444Z,19.40
2018-04-29T19:36:31.134Z,19.30
2018-04-29T19:38:58.799Z,19.30
2018-04-29T19:41:26.490Z,19.20
2018-04-29T19:43:54.214Z,19.10
2018-04-29T19:46:22.779Z,19.10
2018-04-29T19:48:50.844Z,19.10
2018-04-29T19:51:18.560Z,19.10
2018-04-29T19:53:46.235Z,19.00
2018-04-29T19:56:14.015Z,19.10
2018-04-29T19:58:42.477Z,19.00
2018-04-29T20:01:10.907Z,18.90
2018-04-29T20:03:38.655Z,18.90
2018-04-29T20:06:06.302Z,18.90
2018-04-29T20:08:35.584Z,18.90
2018-04-29T20:11:04.060Z,18.80
2018-04-29T20:13:32.487Z,18.80
2018-04-29T20:16:00.172Z,18.80
2018-04-29T20:18:27.878Z,18.80
2018-04-29T20:20:55.547Z,18.70
2018-04-29T20:23:24.676Z,18.70
2018-04-29T20:25:53.310Z,18.70
2018-04-29T20:28:22.151Z,18.60
2018-04-29T20:30:49.876Z,18.60
2018-04-29T20:33:18.310Z,18.60
2018-04-29T20:35:46.003Z,18.60
2018-04-29T20:38:14.467Z,18.70
2018-04-29T20:40:42.138Z,18.60
2018-04-29T20:43:09.835Z,18.70
2018-04-29T20:45:37.499Z,18.60
2018-04-29T20:48:05.191Z,18.60
2018-04-29T20:50:32.843Z,18.60
2018-04-29T20:53:00.557Z,18.60
2018-04-29T20:55:29.239Z,18.60
2018-04-29T20:57:57.851Z,18.60
2018-04-29T21:00:26.734Z,18.50
2018-04-29T21:02:54.416Z,18.50
2018-04-29T21:05:22.146Z,18.50
2018-04-29T21:07:50.817Z,18.50
2018-04-29T21:10:23.794Z,18.50
2018-04-29T21:12:52.449Z,18.40
2018-04-29T21:15:20.144Z,18.40
2018-04-29T21:17:47.812Z,18.40
2018-04-29T21:20:15.562Z,18.50
2018-04-29T21:22:44.639Z,18.40
2018-04-29T21:25:15.665Z,18.40
2018-04-29T21:27:43.550Z,18.30
2018-04-29T21:30:11.199Z,18.30
2018-04-29T21:32:39.110Z,18.30
2018-04-29T21:35:07.862Z,18.20
2018-04-29T21:37:35.531Z,18.20
2018-04-29T21:40:03.259Z,18.20
2018-04-29T21:42:31.163Z,18.20
2018-04-29T21:44:58.891Z,18.20
2018-04-29T21:47:26.563Z,18.20
2018-04-29T21:49:54.248Z,18.10
2018-04-29T21:52:22.913Z,18.10
2018-04-29T21:54:50.620Z,18.00
2018-04-29T21:57:18.288Z,18.00
2018-04-29T21:59:46.885Z,18.00
2018-04-29T22:02:15.405Z,18.00
2018-04-29T22:04:43.087Z,17.90
2018-04-29T22:07:10.740Z,17.90
2018-04-29T22:09:38.698Z,17.90
2018-04-29T22:12:06.362Z,17.80
2018-04-29T22:14:34.076Z,17.80
2018-04-29T22:17:02.500Z,17.70
2018-04-29T22:19:30.163Z,17.80
2018-04-29T22:21:57.849Z,17.70
2018-04-29T22:24:25.539Z,17.70
2018-04-29T22:26:54.427Z,17.70
2018-04-29T22:29:24.104Z,17.60
2018-04-29T22:31:52.819Z,17.60
2018-04-29T22:34:20.472Z,17.60
2018-04-29T22:36:48.152Z,17.50
2018-04-29T22:39:16.573Z,17.60
2018-04-29T22:41:44.260Z,17.50
2018-04-29T22:44:11.948Z,17.50
2018-04-29T22:46:39.638Z,17.40
2018-04-29T22:49:07.296Z,17.50
2018-04-29T22:51:35.020Z,17.40
2018-04-29T22:54:02.683Z,17.40
2018-04-29T22:56:30.358Z,17.40
2018-04-29T22:58:58.051Z,17.30
2018-04-29T23:01:25.735Z,17.30
2018-04-29T23:03:54.716Z,17.30
2018-04-29T23:06:23.107Z,17.30
2018-04-29T23:08:50.805Z,17.30
2018-04-29T23:11:18.469Z,17.20
2018-04-29T23:13:46.177Z,17.20
2018-04-29T23:16:13.830Z,17.20
2018-04-29T23:18:41.510Z,17.20
2018-04-29T23:21:09.176Z,17.20
2018-04-29T23:23:36.890Z,17.20
2018-04-29T23:26:05.336Z,17.20
2018-04-29T23:28:33.027Z,17.10
2018-04-29T23:31:00.709Z,17.10
2018-04-29T23:33:29.187Z,17.00
2018-04-29T23:35:57.621Z,17.10
2018-04-29T23:38:25.318Z,17.10
2018-04-29T23:40:54.344Z,17.00
2018-04-29T23:43:22.689Z,17.00
2018-04-29T23:45:51.158Z,17.00
2018-04-29T23:48:18.820Z,17.00
2018-04-29T23:50:46.508Z,16.90
2018-04-29T23:53:14.969Z,16.90
2018-04-29T23:55:42.671Z,16.90
2018-04-29T23:58:10.364Z,16.90
